Time;durP1;ratioP1;P1;durP2;ratioP2;P2;SDS_P1;SDS_P2;PMS_P1;PMS_P2;Temp;Humidity;BMP_temperature;BMP_pressure;BME280_temperature;BME280_humidity;BME280_pressure;Samples;Min_cycle;Max_cycle;Signal;HPM_P1;HPM_P2
2024/03/21 00:00:11;;;;;;;27.43;12.90;;;;;;;;;;5014537;28;20151;-59
2024/03/21 00:02:46;;;;;;;23.85;12.65;;;;;;;;;;5014493;28;20025;-59
2024/03/21 00:05:12;;;;;;;24.10;12.10;;;;;;;;;;5016874;28;20057;-59
2024/03/21 00:07:37;;;;;;;24.23;11.52;;;;;;;;;;5018452;28;20030;-60
2024/03/21 00:10:03;;;;;;;21.58;11.57;;;;;;;;;;5016890;28;20042;-60
2024/03/21 00:12:29;;;;;;;20.90;11.45;;;;;;;;;;5017417;28;20101;-60
2024/03/21 00:14:54;;;;;;;22.55;12.73;;;;;;;;;;5014601;28;20033;-59
2024/03/21 00:17:20;;;;;;;23.52;11.93;;;;;;;;;;5011644;28;20026;-59
2024/03/21 00:19:45;;;;;;;22.20;11.80;;;;;;;;;;5011589;28;20022;-60
2024/03/21 00:22:10;;;;;;;23.07;11.73;;;;;;;;;;5009993;28;20036;-59
2024/03/21 00:24:38;;;;;;;20.40;11.18;;;;;;;;;;5011961;28;20072;-59
2024/03/21 00:27:06;;;;;;;22.52;11.18;;;;;;;;;;5018984;28;20044;-60
2024/03/21 00:29:32;;;;;;;22.23;11.98;;;;;;;;;;5024625;28;20025;-59
2024/03/21 00:31:57;;;;;;;22.45;12.00;;;;;;;;;;5024658;28;20052;-59
2024/03/21 00:34:22;;;;;;;20.80;11.20;;;;;;;;;;5015729;28;20057;-59
2024/03/21 00:36:47;;;;;;;22.87;11.87;;;;;;;;;;5015201;28;20111;-59
2024/03/21 00:39:15;;;;;;;22.50;11.07;;;;;;;;;;5015087;28;20033;-59
2024/03/21 00:41:40;;;;;;;23.25;11.93;;;;;;;;;;5009561;28;20030;-58
2024/03/21 00:44:07;;;;;;;26.38;12.45;;;;;;;;;;5015281;28;20030;-58
2024/03/21 00:46:33;;;;;;;23.55;12.30;;;;;;;;;;5015043;28;20144;-59
2024/03/21 00:48:58;;;;;;;25.08;12.02;;;;;;;;;;5015018;28;20176;-59
2024/03/21 00:51:23;;;;;;;20.27;11.50;;;;;;;;;;5015088;28;20025;-58
2024/03/21 00:53:48;;;;;;;26.67;12.50;;;;;;;;;;5030279;28;20429;-60
2024/03/21 00:56:14;;;;;;;24.60;12.02;;;;;;;;;;5014082;28;20026;-59
2024/03/21 00:58:39;;;;;;;22.45;11.30;;;;;;;;;;5013969;28;20076;-61
2024/03/21 01:01:04;;;;;;;24.50;12.95;;;;;;;;;;5014746;28;20398;-60
2024/03/21 01:03:30;;;;;;;23.80;12.53;;;;;;;;;;5016951;28;20030;-60
2024/03/21 01:05:55;;;;;;;21.77;11.90;;;;;;;;;;5013297;28;20033;-59
2024/03/21 01:08:21;;;;;;;25.52;12.25;;;;;;;;;;5013443;28;20506;-59
2024/03/21 01:10:49;;;;;;;23.73;12.50;;;;;;;;;;5013875;28;20128;-59
2024/03/21 01:13:15;;;;;;;23.80;11.80;;;;;;;;;;5012849;28;20116;-59
2024/03/21 01:15:40;;;;;;;23.63;12.10;;;;;;;;;;5012629;28;20365;-60
2024/03/21 01:18:06;;;;;;;22.60;12.18;;;;;;;;;;5013876;28;20057;-60
2024/03/21 01:20:32;;;;;;;;;;;;;;;;;;5014838;28;20098;-59
2024/03/21 01:22:58;;;;;;;25.40;12.38;;;;;;;;;;5014249;28;19955;-59
2024/03/21 01:25:23;;;;;;;24.92;12.18;;;;;;;;;;5015083;28;20022;-61
2024/03/21 01:27:48;;;;;;;22.53;11.60;;;;;;;;;;5012874;28;20478;-59
2024/03/21 01:30:13;;;;;;;21.73;11.77;;;;;;;;;;5016346;28;20050;-60
2024/03/21 01:32:38;;;;;;;24.70;12.13;;;;;;;;;;5019731;28;20025;-59
2024/03/21 01:35:04;;;;;;;28.63;12.85;;;;;;;;;;5016662;28;20026;-61
2024/03/21 01:37:29;;;;;;;23.05;11.57;;;;;;;;;;5020790;28;20086;-60
2024/03/21 01:39:55;;;;;;;24.88;13.10;;;;;;;;;;5016687;28;20080;-60
2024/03/21 01:42:20;;;;;;;24.77;12.10;;;;;;;;;;5015911;28;20497;-59
2024/03/21 01:44:59;;;;;;;25.58;12.52;;;;;;;;;;5021307;28;20029;-60
2024/03/21 01:47:24;;;;;;;25.83;12.90;;;;;;;;;;4995232;28;20022;-59
2024/03/21 01:49:49;;;;;;;28.27;13.60;;;;;;;;;;5013444;28;20106;-59
2024/03/21 01:52:14;;;;;;;23.43;12.57;;;;;;;;;;5012679;28;20387;-60
2024/03/21 01:54:40;;;;;;;22.70;12.27;;;;;;;;;;5012351;28;20037;-61
2024/03/21 01:57:05;;;;;;;24.75;12.40;;;;;;;;;;5013391;28;20421;-59
2024/03/21 01:59:30;;;;;;;28.63;13.00;;;;;;;;;;5013130;28;20025;-60
2024/03/21 02:01:58;;;;;;;24.38;11.90;;;;;;;;;;5013102;28;20034;-60
2024/03/21 02:04:24;;;;;;;26.13;12.95;;;;;;;;;;5009553;28;20028;-60
2024/03/21 02:06:49;;;;;;;25.30;12.55;;;;;;;;;;5012462;28;20030;-58
2024/03/21 02:09:21;;;;;;;25.05;12.20;;;;;;;;;;5012061;28;20103;-59
2024/03/21 02:11:46;;;;;;;24.67;12.40;;;;;;;;;;5005370;28;20018;-61
2024/03/21 02:14:12;;;;;;;24.15;11.77;;;;;;;;;;5012792;28;20062;-59
2024/03/21 02:16:37;;;;;;;24.95;12.55;;;;;;;;;;5015765;28;20026;-59
2024/03/21 02:19:03;;;;;;;25.25;12.05;;;;;;;;;;5022820;28;20096;-60
2024/03/21 02:24:12;;;;;;;23.88;12.38;;;;;;;;;;5011635;28;20246;-60
2024/03/21 02:26:37;;;;;;;24.73;13.00;;;;;;;;;;5013092;28;20018;-62
2024/03/21 02:29:04;;;;;;;24.80;12.60;;;;;;;;;;5011038;28;20049;-61
2024/03/21 02:31:29;;;;;;;23.55;12.35;;;;;;;;;;5012375;28;20038;-60
2024/03/21 02:33:54;;;;;;;25.85;12.35;;;;;;;;;;5012365;28;20470;-59
2024/03/21 02:36:19;;;;;;;25.83;12.55;;;;;;;;;;5010769;28;20056;-60
2024/03/21 02:38:45;;;;;;;27.17;13.00;;;;;;;;;;5010844;28;20041;-59
2024/03/21 02:41:10;;;;;;;26.38;12.40;;;;;;;;;;5009194;28;20436;-59
2024/03/21 02:43:35;;;;;;;26.83;13.63;;;;;;;;;;5010603;28;20041;-59
2024/03/21 02:46:00;;;;;;;23.85;12.68;;;;;;;;;;5011438;28;20022;-60
2024/03/21 02:48:27;;;;;;;26.98;13.43;;;;;;;;;;5011860;28;20038;-60
2024/03/21 02:50:52;;;;;;;26.38;13.05;;;;;;;;;;5011693;28;20017;-59
2024/03/21 02:53:17;;;;;;;26.50;13.50;;;;;;;;;;5012396;28;20057;-59
2024/03/21 02:55:42;;;;;;;25.13;12.68;;;;;;;;;;5010413;28;20056;-59
2024/03/21 02:58:08;;;;;;;27.27;13.90;;;;;;;;;;5011362;28;20022;-60
2024/03/21 03:00:33;;;;;;;24.93;13.37;;;;;;;;;;5011346;28;20018;-59
2024/03/21 03:02:58;;;;;;;25.40;13.57;;;;;;;;;;5009803;28;20462;-59
2024/03/21 03:05:23;;;;;;;27.47;13.77;;;;;;;;;;5010557;28;20018;-59
2024/03/21 03:07:48;;;;;;;28.10;14.10;;;;;;;;;;5011795;28;20044;-59
2024/03/21 03:10:14;;;;;;;27.95;13.68;;;;;;;;;;5010843;28;20025;-60
2024/03/21 03:12:39;;;;;;;29.80;14.23;;;;;;;;;;5011228;28;20084;-59
2024/03/21 03:15:04;;;;;;;26.80;13.40;;;;;;;;;;5010710;28;20038;-59
2024/03/21 03:17:29;;;;;;;26.35;13.73;;;;;;;;;;5010690;28;20022;-60
2024/03/21 03:19:54;;;;;;;28.25;14.32;;;;;;;;;;5010802;28;20056;-59
2024/03/21 03:22:20;;;;;;;25.80;13.18;;;;;;;;;;5010435;28;20044;-60
2024/03/21 03:24:45;;;;;;;25.75;13.10;;;;;;;;;;5008956;28;20474;-60
2024/03/21 03:27:10;;;;;;;29.00;14.48;;;;;;;;;;5012695;28;20057;-59
2024/03/21 03:29:35;;;;;;;28.50;14.65;;;;;;;;;;5015360;28;20030;-61
2024/03/21 03:32:03;;;;;;;29.10;14.77;;;;;;;;;;5012439;28;20587;-60
2024/03/21 03:37:13;;;;;;;27.77;13.40;;;;;;;;;;5028267;28;20065;-60
2024/03/21 03:39:38;;;;;;;30.00;14.00;;;;;;;;;;5030034;28;20509;-60
2024/03/21 03:42:03;;;;;;;30.90;15.55;;;;;;;;;;5029133;28;20041;-60
2024/03/21 03:44:28;;;;;;;29.00;14.25;;;;;;;;;;5030070;28;20029;-59
2024/03/21 03:46:54;;;;;;;28.70;13.17;;;;;;;;;;5030350;28;20014;-61
2024/03/21 03:49:20;;;;;;;30.40;13.47;;;;;;;;;;5031048;28;20034;-60
2024/03/21 03:51:45;;;;;;;28.45;14.13;;;;;;;;;;5047610;28;20443;-60
2024/03/21 03:54:10;;;;;;;29.30;14.67;;;;;;;;;;5016166;28;20021;-60
2024/03/21 03:56:36;;;;;;;30.10;14.33;;;;;;;;;;5013016;28;20038;-61
2024/03/21 03:59:01;;;;;;;28.37;14.33;;;;;;;;;;5021387;28;20034;-59
2024/03/21 04:01:26;;;;;;;29.40;13.55;;;;;;;;;;5029528;28;20440;-61
2024/03/21 04:03:51;;;;;;;25.05;14.10;;;;;;;;;;5017913;28;20088;-61
2024/03/21 04:06:16;;;;;;;27.25;14.77;;;;;;;;;;5030823;28;20026;-60
2024/03/21 04:08:41;;;;;;;27.63;14.10;;;;;;;;;;5015592;28;20379;-62
2024/03/21 04:11:12;;;;;;;27.75;15.20;;;;;;;;;;5015677;28;20022;-60
2024/03/21 04:13:37;;;;;;;26.52;13.75;;;;;;;;;;5027826;28;20072;-59
2024/03/21 04:16:03;;;;;;;27.15;13.95;;;;;;;;;;5013558;28;20037;-59
2024/03/21 04:18:28;;;;;;;26.88;13.45;;;;;;;;;;5014787;28;20030;-59
2024/03/21 04:20:53;;;;;;;28.75;13.93;;;;;;;;;;5013446;28;20032;-60
2024/03/21 04:23:18;;;;;;;27.42;13.40;;;;;;;;;;5013358;28;20080;-60
2024/03/21 04:25:44;;;;;;;29.65;14.48;;;;;;;;;;5014786;28;20429;-59
2024/03/21 04:28:09;;;;;;;27.67;14.33;;;;;;;;;;5014267;28;20014;-60
2024/03/21 04:30:34;;;;;;;26.47;13.23;;;;;;;;;;5025862;28;20125;-61
2024/03/21 04:32:59;;;;;;;25.10;12.97;;;;;;;;;;5027366;28;20029;-60
2024/03/21 04:35:24;;;;;;;31.67;15.20;;;;;;;;;;5013927;28;20052;-60
2024/03/21 04:37:50;;;;;;;32.63;15.40;;;;;;;;;;5013736;28;20018;-60
2024/03/21 04:40:15;;;;;;;27.87;14.27;;;;;;;;;;5013790;28;20042;-60
2024/03/21 04:42:40;;;;;;;25.80;13.53;;;;;;;;;;5014108;28;20444;-60
2024/03/21 04:45:06;;;;;;;30.88;14.60;;;;;;;;;;5014308;28;20371;-60
2024/03/21 04:47:31;;;;;;;28.45;14.80;;;;;;;;;;5031279;28;20386;-60
2024/03/21 04:49:56;;;;;;;28.17;13.93;;;;;;;;;;5032595;28;20034;-60
2024/03/21 04:52:21;;;;;;;26.80;13.43;;;;;;;;;;5014311;28;20038;-60
2024/03/21 04:54:50;;;;;;;28.13;14.35;;;;;;;;;;5013755;28;20038;-60
2024/03/21 04:57:15;;;;;;;27.67;14.38;;;;;;;;;;5014572;28;20029;-59
2024/03/21 04:59:40;;;;;;;28.50;14.37;;;;;;;;;;5015120;28;20030;-60
2024/03/21 05:02:06;;;;;;;29.45;15.02;;;;;;;;;;5016575;28;20029;-60
2024/03/21 05:04:31;;;;;;;31.70;15.05;;;;;;;;;;5027669;28;20068;-60
2024/03/21 05:06:56;;;;;;;31.38;14.18;;;;;;;;;;5020111;28;20037;-60
2024/03/21 05:09:21;;;;;;;30.38;14.70;;;;;;;;;;5023112;28;20033;-59
2024/03/21 05:11:46;;;;;;;31.80;15.50;;;;;;;;;;5017202;28;20026;-60
2024/03/21 05:14:12;;;;;;;28.73;14.77;;;;;;;;;;5018335;28;20041;-59
2024/03/21 05:16:37;;;;;;;27.73;13.50;;;;;;;;;;5016010;28;20030;-59
2024/03/21 05:19:02;;;;;;;27.42;13.80;;;;;;;;;;5019384;28;20052;-60
2024/03/21 05:21:27;;;;;;;27.67;13.80;;;;;;;;;;5018116;28;20030;-60
2024/03/21 05:23:52;;;;;;;30.00;13.50;;;;;;;;;;5027806;28;20061;-59
2024/03/21 05:26:18;;;;;;;30.75;14.95;;;;;;;;;;5043294;28;20022;-59
2024/03/21 05:28:46;;;;;;;27.48;13.93;;;;;;;;;;5026511;28;20018;-59
2024/03/21 05:31:24;;;;;;;31.85;14.90;;;;;;;;;;5022625;28;20030;-61
2024/03/21 05:33:49;;;;;;;32.45;14.88;;;;;;;;;;5022839;28;20029;-61
2024/03/21 05:36:15;;;;;;;31.13;14.93;;;;;;;;;;5023672;28;20033;-61
2024/03/21 05:38:41;;;;;;;27.67;13.77;;;;;;;;;;5025016;28;20022;-59
2024/03/21 05:41:06;;;;;;;32.13;15.38;;;;;;;;;;5008126;28;20021;-61
2024/03/21 05:43:31;;;;;;;30.17;15.45;;;;;;;;;;5015879;28;20033;-60
2024/03/21 05:45:57;;;;;;;28.15;14.13;;;;;;;;;;5015167;28;20037;-60
2024/03/21 05:48:22;;;;;;;26.10;13.40;;;;;;;;;;5023718;28;20413;-60
2024/03/21 05:50:47;;;;;;;27.95;13.93;;;;;;;;;;5007324;28;20113;-58
2024/03/21 05:53:12;;;;;;;29.30;13.77;;;;;;;;;;5010560;28;20711;-59
2024/03/21 05:55:37;;;;;;;27.77;14.27;;;;;;;;;;5007015;28;20029;-60
2024/03/21 05:58:03;;;;;;;28.25;13.55;;;;;;;;;;5009729;28;20026;-58
2024/03/21 06:00:30;;;;;;;26.98;14.13;;;;;;;;;;5010149;28;20060;-61
2024/03/21 06:02:55;;;;;;;28.45;13.85;;;;;;;;;;5009867;28;20033;-60
2024/03/21 06:05:20;;;;;;;29.17;14.20;;;;;;;;;;5009379;28;20107;-60
2024/03/21 06:07:45;;;;;;;29.15;13.57;;;;;;;;;;5009341;28;20049;-60
2024/03/21 06:10:10;;;;;;;28.00;13.77;;;;;;;;;;5024042;28;20454;-59
